createdAt,value
2023-02-23T00:00:30.120Z,74.41
2023-02-23T00:03:01.532Z,74.83
2023-02-23T00:05:39.301Z,74.83
2023-02-23T00:08:07.767Z,75.71
2023-02-23T00:10:36.123Z,75.94
2023-02-23T00:13:05.135Z,76.51
2023-02-23T00:15:33.864Z,76.60
2023-02-23T00:18:04.701Z,76.91
2023-02-23T00:20:35.731Z,76.48
2023-02-23T00:23:04.834Z,76.79
2023-02-23T00:25:33.213Z,76.93
2023-02-23T00:28:01.699Z,76.97
2023-02-23T00:30:30.732Z,77.20
2023-02-23T00:32:59.326Z,77.25
2023-02-23T00:35:27.706Z,75.20
2023-02-23T00:37:57.640Z,76.25
2023-02-23T00:40:26.654Z,76.88
2023-02-23T00:42:55.463Z,77.32
2023-02-23T00:45:23.856Z,77.95
2023-02-23T00:47:52.425Z,78.16
2023-02-23T00:50:20.994Z,78.16
2023-02-23T00:52:49.497Z,78.03
2023-02-23T00:55:19.496Z,78.15
2023-02-23T00:57:47.839Z,77.69
2023-02-23T01:00:20.331Z,77.78
2023-02-23T01:02:50.504Z,77.68
2023-02-23T01:05:22.274Z,78.00
2023-02-23T01:07:51.203Z,77.81
2023-02-23T01:10:21.439Z,78.00
2023-02-23T01:12:51.056Z,77.98
2023-02-23T01:15:21.051Z,78.82
2023-02-23T01:17:49.654Z,78.69
2023-02-23T01:20:19.536Z,78.58
2023-02-23T01:22:50.086Z,78.37
2023-02-23T01:25:20.818Z,78.49
2023-02-23T01:27:49.279Z,78.06
2023-02-23T01:30:17.908Z,78.36
2023-02-23T01:32:46.369Z,78.13
2023-02-23T01:35:15.207Z,78.24
2023-02-23T01:37:44.822Z,78.57
2023-02-23T01:40:28.801Z,78.75
2023-02-23T01:43:01.346Z,78.74
2023-02-23T01:45:35.943Z,78.81
2023-02-23T01:48:08.017Z,78.89
2023-02-23T01:50:42.992Z,78.86
2023-02-23T01:53:12.187Z,79.68
2023-02-23T01:55:43.115Z,80.24
2023-02-23T01:58:17.379Z,80.51
2023-02-23T02:00:51.144Z,80.40
2023-02-23T02:03:26.832Z,80.73
2023-02-23T02:05:57.704Z,81.26
2023-02-23T02:08:27.284Z,81.08
2023-02-23T02:10:57.742Z,81.02
2023-02-23T02:13:30.858Z,81.65
2023-02-23T02:16:29.450Z,81.20
2023-02-23T02:19:24.462Z,81.73
2023-02-23T02:22:18.784Z,81.69
2023-02-23T02:25:19.750Z,81.62
2023-02-23T02:28:14.743Z,82.01
2023-02-23T02:31:01.013Z,82.57
2023-02-23T02:33:53.159Z,82.35
2023-02-23T02:36:56.131Z,81.80
2023-02-23T02:39:37.023Z,82.56
2023-02-23T02:42:19.164Z,82.28
2023-02-23T02:44:57.193Z,82.53
2023-02-23T02:47:31.616Z,82.29
2023-02-23T02:50:08.047Z,82.51
2023-02-23T02:52:41.542Z,82.33
2023-02-23T02:55:16.972Z,82.39
2023-02-23T02:57:48.064Z,82.17
2023-02-23T03:00:38.866Z,82.15
2023-02-23T03:03:24.665Z,82.17
2023-02-23T03:06:13.601Z,82.11
2023-02-23T03:09:07.453Z,81.83
2023-02-23T03:12:07.240Z,81.85
2023-02-23T03:15:04.826Z,82.03
2023-02-23T03:18:00.627Z,82.46
2023-02-23T03:20:56.659Z,82.42
2023-02-23T03:23:49.072Z,82.04
2023-02-23T03:26:41.592Z,82.31
2023-02-23T03:29:37.047Z,82.19
2023-02-23T03:32:30.253Z,82.68
2023-02-23T03:35:22.759Z,82.56
2023-02-23T03:38:15.749Z,82.25
2023-02-23T03:41:04.255Z,81.84
2023-02-23T03:43:53.824Z,81.96
2023-02-23T03:46:44.445Z,81.83
2023-02-23T03:49:32.823Z,82.31
2023-02-23T03:52:24.274Z,82.48
2023-02-23T03:55:15.177Z,82.66
2023-02-23T03:58:04.543Z,82.80
2023-02-23T04:00:53.461Z,82.99
2023-02-23T04:03:42.197Z,82.90
2023-02-23T04:06:32.764Z,82.66
2023-02-23T04:09:23.936Z,82.78
2023-02-23T04:12:15.734Z,82.91
2023-02-23T04:14:49.568Z,82.54
2023-02-23T04:17:23.524Z,82.51
2023-02-23T04:19:54.522Z,82.85
2023-02-23T04:22:24.158Z,82.73
2023-02-23T04:24:52.547Z,82.23
2023-02-23T04:27:21.273Z,82.18
2023-02-23T04:29:49.714Z,82.80
2023-02-23T04:32:21.086Z,82.66
2023-02-23T04:34:49.786Z,82.42
2023-02-23T04:37:19.569Z,82.33
2023-02-23T04:39:50.337Z,82.17
2023-02-23T04:42:19.403Z,82.51
2023-02-23T04:44:47.941Z,82.55
2023-02-23T04:47:17.056Z,82.55
2023-02-23T04:49:45.936Z,82.66
2023-02-23T04:52:14.458Z,82.48
2023-02-23T04:54:44.292Z,82.48
2023-02-23T04:57:12.754Z,82.82
2023-02-23T04:59:41.072Z,82.72
2023-02-23T05:02:09.602Z,83.47
2023-02-23T05:04:38.126Z,83.49
2023-02-23T05:07:07.099Z,83.26
2023-02-23T05:09:35.687Z,83.59
2023-02-23T05:12:05.978Z,83.49
2023-02-23T05:14:34.367Z,83.39
2023-02-23T05:17:02.918Z,83.85
2023-02-23T05:19:31.444Z,83.54
2023-02-23T05:21:59.742Z,83.99
2023-02-23T05:24:28.176Z,83.58
2023-02-23T05:26:56.473Z,83.61
2023-02-23T05:29:26.360Z,83.33
2023-02-23T05:31:54.899Z,83.15
2023-02-23T05:34:23.350Z,83.60
2023-02-23T05:36:51.982Z,83.15
2023-02-23T05:39:20.383Z,83.29
2023-02-23T05:41:48.802Z,83.72
2023-02-23T05:44:17.508Z,83.54
2023-02-23T05:46:48.633Z,83.69
2023-02-23T05:49:17.167Z,83.62
2023-02-23T05:51:45.559Z,83.57
2023-02-23T05:54:15.149Z,83.61
2023-02-23T05:56:43.939Z,83.46
2023-02-23T05:59:13.377Z,83.67
2023-02-23T06:01:41.851Z,83.28
2023-02-23T06:04:11.590Z,83.72
2023-02-23T06:06:40.185Z,83.44
2023-02-23T06:09:08.694Z,83.27
2023-02-23T06:11:37.091Z,83.14
2023-02-23T06:14:05.500Z,83.16
2023-02-23T06:16:33.997Z,82.83
2023-02-23T06:19:02.394Z,82.74
2023-02-23T06:21:32.272Z,82.63
2023-02-23T06:24:01.153Z,82.72
2023-02-23T06:26:29.884Z,82.44
2023-02-23T06:28:58.667Z,82.43
2023-02-23T06:31:27.128Z,82.50
2023-02-23T06:33:55.530Z,82.37
2023-02-23T06:36:24.639Z,82.46
2023-02-23T06:38:58.166Z,82.61
2023-02-23T06:41:27.236Z,82.35
2023-02-23T06:43:55.688Z,82.33
2023-02-23T06:46:24.833Z,82.13
2023-02-23T06:48:56.685Z,81.90
2023-02-23T06:51:25.425Z,81.80
2023-02-23T06:53:55.261Z,81.74
2023-02-23T06:56:24.178Z,81.77
2023-02-23T06:58:52.636Z,81.73
2023-02-23T07:01:21.457Z,81.71
2023-02-23T07:03:50.114Z,81.63
2023-02-23T07:06:18.512Z,81.64
2023-02-23T07:08:46.894Z,81.31
2023-02-23T07:11:18.937Z,81.42
2023-02-23T07:13:48.514Z,81.31
2023-02-23T07:16:17.014Z,81.71
2023-02-23T07:18:45.531Z,81.51
2023-02-23T07:21:13.938Z,81.63
2023-02-23T07:23:42.379Z,81.38
2023-02-23T07:26:12.408Z,81.32
2023-02-23T07:28:42.388Z,81.15
2023-02-23T07:31:10.825Z,81.20
2023-02-23T07:33:39.170Z,81.23
2023-02-23T07:36:07.958Z,81.79
2023-02-23T07:38:36.750Z,81.63
2023-02-23T07:41:05.257Z,81.66
2023-02-23T07:43:33.658Z,81.71
2023-02-23T07:46:04.494Z,81.79
2023-02-23T07:48:33.401Z,81.68
2023-02-23T07:51:01.956Z,81.61
2023-02-23T07:53:30.294Z,82.06
2023-02-23T07:55:59.154Z,81.95
2023-02-23T07:58:27.540Z,82.05
2023-02-23T08:00:56.069Z,82.28
2023-02-23T08:03:26.448Z,82.20
2023-02-23T08:05:54.996Z,82.31
2023-02-23T08:08:23.560Z,82.53
2023-02-23T08:10:52.293Z,82.81
2023-02-23T08:13:20.729Z,83.13
2023-02-23T08:15:49.068Z,82.96
2023-02-23T08:18:17.917Z,82.87
2023-02-23T08:20:47.933Z,82.70
2023-02-23T08:23:17.094Z,82.68
2023-02-23T08:25:45.734Z,82.42
2023-02-23T08:28:14.128Z,82.61
2023-02-23T08:30:43.032Z,82.61
2023-02-23T08:33:11.433Z,83.05
2023-02-23T08:35:39.818Z,83.16
2023-02-23T08:38:09.556Z,83.24
2023-02-23T08:40:38.011Z,83.30
2023-02-23T08:43:06.481Z,83.36
2023-02-23T08:45:34.958Z,83.53
2023-02-23T08:48:03.360Z,83.58
2023-02-23T08:50:31.954Z,83.67
2023-02-23T08:53:00.282Z,83.62
2023-02-23T08:55:30.103Z,83.36
2023-02-23T08:57:58.718Z,83.60
2023-02-23T09:00:27.388Z,83.34
2023-02-23T09:02:55.901Z,83.53
2023-02-23T09:05:24.308Z,83.29
2023-02-23T09:07:52.760Z,83.27
2023-02-23T09:10:25.018Z,83.38
2023-02-23T09:12:55.214Z,83.53
2023-02-23T09:15:23.886Z,83.32
2023-02-23T09:17:52.518Z,83.12
2023-02-23T09:20:26.842Z,82.94
2023-02-23T09:22:55.421Z,83.26
2023-02-23T09:25:24.304Z,83.53
2023-02-23T09:27:56.510Z,83.11
2023-02-23T09:30:24.965Z,83.13
2023-02-23T09:32:53.746Z,83.25
2023-02-23T09:35:24.438Z,83.26
2023-02-23T09:37:56.324Z,83.31
2023-02-23T09:40:27.831Z,83.42
2023-02-23T09:43:04.473Z,83.02
2023-02-23T09:45:40.453Z,83.17
2023-02-23T09:48:16.818Z,83.34
2023-02-23T09:50:49.522Z,83.46
2023-02-23T09:53:35.926Z,83.37
2023-02-23T09:56:10.860Z,83.50
2023-02-23T09:58:41.369Z,83.91
2023-02-23T10:01:27.701Z,83.42
2023-02-23T10:04:01.158Z,83.85
2023-02-23T10:06:30.394Z,83.97
2023-02-23T10:09:15.782Z,83.55
2023-02-23T10:11:51.786Z,83.89
2023-02-23T10:14:37.692Z,83.83
2023-02-23T10:17:16.666Z,83.77
2023-02-23T10:19:50.430Z,83.43
2023-02-23T10:22:20.897Z,83.55
2023-02-23T10:24:57.271Z,83.20
2023-02-23T10:27:31.804Z,83.71
2023-02-23T10:30:04.953Z,83.69
2023-02-23T10:32:41.982Z,84.04
2023-02-23T10:35:14.024Z,84.13
2023-02-23T10:37:42.651Z,84.07
2023-02-23T10:40:16.805Z,84.41
2023-02-23T10:42:45.898Z,84.50
2023-02-23T10:45:19.805Z,84.41
2023-02-23T10:47:49.624Z,84.08
2023-02-23T10:50:18.468Z,84.10
2023-02-23T10:52:49.242Z,84.10
2023-02-23T10:55:27.412Z,83.66
2023-02-23T10:58:17.139Z,83.79
2023-02-23T11:00:55.961Z,83.50
2023-02-23T11:03:29.583Z,83.93
2023-02-23T11:05:58.045Z,84.01
2023-02-23T11:08:30.723Z,83.44
2023-02-23T11:11:02.869Z,83.18
2023-02-23T11:13:36.610Z,82.76
2023-02-23T11:16:10.523Z,82.71
2023-02-23T11:18:40.703Z,82.54
2023-02-23T11:21:22.870Z,82.64
2023-02-23T11:23:53.518Z,82.53
2023-02-23T11:26:29.793Z,82.40
2023-02-23T11:29:00.912Z,82.20
2023-02-23T11:31:34.845Z,82.13
2023-02-23T11:34:05.766Z,81.50
2023-02-23T11:36:35.823Z,81.55
2023-02-23T11:39:19.497Z,81.14
2023-02-23T11:41:47.932Z,81.18
2023-02-23T11:44:22.797Z,81.08
2023-02-23T11:46:53.409Z,81.33
2023-02-23T11:49:24.956Z,81.62
2023-02-23T11:51:54.870Z,81.70
2023-02-23T11:54:28.603Z,81.64
2023-02-23T11:56:58.217Z,82.11
2023-02-23T11:59:31.394Z,81.70
2023-02-23T12:02:07.608Z,81.81
2023-02-23T12:04:39.120Z,81.71
2023-02-23T12:07:29.770Z,81.10
2023-02-23T12:10:06.615Z,81.97
2023-02-23T12:12:46.053Z,81.43
2023-02-23T12:15:25.134Z,81.64
2023-02-23T12:17:59.146Z,81.37
2023-02-23T12:20:31.818Z,81.87
2023-02-23T12:23:03.892Z,81.83
2023-02-23T12:25:40.575Z,81.97
2023-02-23T12:28:19.233Z,82.34
2023-02-23T12:30:52.237Z,82.37
2023-02-23T12:33:30.251Z,82.49
2023-02-23T12:36:01.935Z,82.65
2023-02-23T12:38:40.980Z,82.77
2023-02-23T12:41:13.804Z,82.68
2023-02-23T12:43:49.559Z,82.65
2023-02-23T12:46:23.369Z,82.23
2023-02-23T12:49:05.414Z,81.75
2023-02-23T12:51:37.301Z,81.86
2023-02-23T12:54:06.117Z,82.04
2023-02-23T12:56:51.911Z,80.88
2023-02-23T12:59:44.974Z,80.92
2023-02-23T13:02:21.776Z,80.60
2023-02-23T13:05:15.566Z,79.83
2023-02-23T13:07:53.998Z,78.76
2023-02-23T13:10:33.325Z,78.15
2023-02-23T13:13:18.786Z,77.99
2023-02-23T13:15:55.727Z,77.53
2023-02-23T13:18:28.467Z,77.08
2023-02-23T13:21:07.033Z,76.15
2023-02-23T13:23:41.633Z,76.56
2023-02-23T13:26:20.411Z,76.32
2023-02-23T13:28:57.327Z,76.40
2023-02-23T13:31:28.408Z,76.17
2023-02-23T13:34:00.183Z,76.51
2023-02-23T13:36:33.496Z,76.04
2023-02-23T13:39:32.612Z,75.89
2023-02-23T13:42:15.033Z,76.20
2023-02-23T13:44:50.606Z,76.29
2023-02-23T13:47:34.214Z,76.53
2023-02-23T13:50:08.870Z,76.16
2023-02-23T13:52:43.374Z,76.20
2023-02-23T13:55:48.531Z,75.32
2023-02-23T13:58:20.296Z,75.09
2023-02-23T14:00:56.213Z,74.82
2023-02-23T14:03:28.558Z,74.60
2023-02-23T14:06:02.198Z,74.15
2023-02-23T14:08:37.763Z,73.94
2023-02-23T14:11:07.340Z,74.05
2023-02-23T14:13:43.029Z,74.44
2023-02-23T14:16:17.444Z,73.83
2023-02-23T14:18:56.716Z,73.52
2023-02-23T14:21:33.512Z,74.00
2023-02-23T14:24:17.769Z,73.08
2023-02-23T14:27:08.537Z,72.71
2023-02-23T14:29:42.039Z,72.36
2023-02-23T14:32:31.873Z,72.14
2023-02-23T14:35:01.762Z,72.49
2023-02-23T14:37:36.443Z,72.54
2023-02-23T14:40:15.080Z,72.40
2023-02-23T14:42:48.512Z,72.12
2023-02-23T14:45:27.253Z,72.08
2023-02-23T14:48:00.947Z,72.03
2023-02-23T14:50:32.308Z,71.68
2023-02-23T14:53:02.396Z,71.61
2023-02-23T14:55:35.514Z,71.09
2023-02-23T14:58:05.132Z,70.87
2023-02-23T15:00:42.716Z,70.44
2023-02-23T15:03:13.869Z,70.24
2023-02-23T15:05:45.036Z,69.38
2023-02-23T15:08:17.551Z,69.04
2023-02-23T15:10:50.399Z,68.69
2023-02-23T15:13:30.758Z,68.66
2023-02-23T15:16:02.596Z,68.31
2023-02-23T15:18:35.247Z,68.62
2023-02-23T15:21:08.602Z,68.50
2023-02-23T15:23:38.477Z,68.96
2023-02-23T15:26:24.490Z,69.23
2023-02-23T15:28:53.557Z,68.59
2023-02-23T15:31:22.586Z,68.52
2023-02-23T15:33:52.022Z,69.19
2023-02-23T15:36:29.325Z,68.93
2023-02-23T15:39:02.441Z,69.44
2023-02-23T15:41:35.042Z,69.64
2023-02-23T15:44:07.958Z,69.66
2023-02-23T15:46:38.053Z,70.15
2023-02-23T15:49:07.315Z,70.18
2023-02-23T15:51:38.938Z,70.15
2023-02-23T15:54:21.721Z,70.05
2023-02-23T15:56:54.822Z,70.06
2023-02-23T15:59:28.926Z,70.07
2023-02-23T16:02:00.422Z,69.97
2023-02-23T16:04:32.588Z,70.23
2023-02-23T16:07:19.194Z,70.21
2023-02-23T16:09:53.120Z,70.41
2023-02-23T16:12:26.309Z,70.32
2023-02-23T16:14:58.404Z,70.37
2023-02-23T16:17:30.081Z,70.31
2023-02-23T16:20:11.410Z,70.53
2023-02-23T16:22:41.132Z,70.78
2023-02-23T16:25:14.486Z,70.51
2023-02-23T16:27:45.714Z,70.42
2023-02-23T16:30:23.462Z,70.58
2023-02-23T16:33:06.484Z,70.66
2023-02-23T16:35:37.935Z,70.85
2023-02-23T16:38:14.355Z,70.32
2023-02-23T16:40:43.353Z,70.57
2023-02-23T16:43:13.186Z,71.03
2023-02-23T16:45:43.825Z,71.00
2023-02-23T16:48:15.207Z,70.71
2023-02-23T16:50:45.775Z,71.09
2023-02-23T16:53:14.516Z,71.13
2023-02-23T16:55:48.096Z,70.53
2023-02-23T16:58:20.883Z,71.17
2023-02-23T17:00:49.436Z,70.76
2023-02-23T17:03:20.592Z,71.06
2023-02-23T17:05:49.563Z,70.74
2023-02-23T17:08:19.220Z,70.70
2023-02-23T17:10:49.956Z,70.59
2023-02-23T17:13:22.049Z,69.84
2023-02-23T17:15:53.875Z,70.14
2023-02-23T17:20:59.552Z,69.49
2023-02-23T17:23:38.454Z,69.61
2023-02-23T17:26:08.391Z,69.79
2023-02-23T17:28:38.541Z,69.79
2023-02-23T17:31:09.330Z,70.21
2023-02-23T17:33:40.197Z,70.58
2023-02-23T17:36:11.212Z,71.02
2023-02-23T17:38:44.406Z,70.83
2023-02-23T17:41:15.652Z,70.93
2023-02-23T17:43:45.863Z,71.09
2023-02-23T17:46:14.644Z,72.14
2023-02-23T17:48:44.874Z,71.93
2023-02-23T17:51:16.244Z,72.43
2023-02-23T17:53:45.365Z,72.77
2023-02-23T17:56:13.821Z,73.10
2023-02-23T17:58:42.174Z,73.14
2023-02-23T18:01:11.886Z,72.97
2023-02-23T18:03:40.445Z,73.36
2023-02-23T18:06:10.559Z,73.85
2023-02-23T18:08:39.981Z,73.82
2023-02-23T18:11:08.393Z,74.04
2023-02-23T18:13:37.056Z,73.99
2023-02-23T18:16:09.578Z,74.20
2023-02-23T18:18:41.345Z,73.78
2023-02-23T18:21:13.003Z,74.03
2023-02-23T18:23:41.602Z,74.35
2023-02-23T18:26:12.416Z,73.80
2023-02-23T18:28:44.464Z,74.23
2023-02-23T18:31:15.689Z,74.07
2023-02-23T18:33:46.442Z,73.64
2023-02-23T18:36:20.293Z,74.14
2023-02-23T18:38:48.780Z,74.17
2023-02-23T18:41:17.317Z,74.70
2023-02-23T18:43:46.237Z,74.87
2023-02-23T18:46:15.631Z,75.05
2023-02-23T18:48:45.656Z,74.55
2023-02-23T18:51:14.784Z,75.17
2023-02-23T18:53:44.731Z,75.18
2023-02-23T18:56:14.980Z,75.73
2023-02-23T18:58:45.755Z,75.55
2023-02-23T19:01:18.272Z,75.99
2023-02-23T19:03:48.339Z,75.83
2023-02-23T19:06:19.372Z,75.94
2023-02-23T19:08:54.282Z,76.04
2023-02-23T19:11:27.555Z,75.71
2023-02-23T19:13:57.537Z,76.45
2023-02-23T19:16:28.119Z,76.53
2023-02-23T19:18:58.104Z,76.25
2023-02-23T19:21:26.687Z,76.37
2023-02-23T19:23:57.831Z,76.27
2023-02-23T19:26:27.525Z,76.28
2023-02-23T19:28:56.318Z,76.00
2023-02-23T19:31:26.283Z,76.31
2023-02-23T19:33:56.821Z,76.64
2023-02-23T19:36:30.823Z,76.82
2023-02-23T19:39:10.905Z,76.46
2023-02-23T19:41:41.654Z,76.75
2023-02-23T19:44:10.535Z,76.61
2023-02-23T19:46:40.056Z,76.83
2023-02-23T19:49:08.604Z,76.67
2023-02-23T19:51:38.640Z,76.90
2023-02-23T19:54:07.684Z,76.79
2023-02-23T19:56:36.559Z,77.10
2023-02-23T19:59:06.454Z,77.01
2023-02-23T20:01:34.917Z,77.03
2023-02-23T20:04:06.682Z,76.99
2023-02-23T20:06:44.770Z,77.10
2023-02-23T20:09:13.577Z,77.32
2023-02-23T20:11:42.781Z,77.21
2023-02-23T20:14:12.606Z,77.13
2023-02-23T20:16:41.448Z,76.90
2023-02-23T20:19:11.831Z,77.02
2023-02-23T20:21:42.264Z,76.65
2023-02-23T20:24:12.917Z,76.82
2023-02-23T20:26:41.309Z,76.37
2023-02-23T20:29:13.306Z,76.38
2023-02-23T20:31:50.759Z,76.19
2023-02-23T20:34:24.695Z,76.12
2023-02-23T20:36:58.130Z,76.46
2023-02-23T20:39:27.234Z,76.44
2023-02-23T20:42:05.344Z,76.28
2023-02-23T20:44:43.953Z,76.29
2023-02-23T20:47:27.630Z,75.58
2023-02-23T20:50:05.202Z,75.83
2023-02-23T20:52:35.389Z,75.36
2023-02-23T20:55:05.339Z,75.86
2023-02-23T20:57:34.612Z,75.64
2023-02-23T21:00:22.848Z,75.76
2023-02-23T21:02:55.785Z,75.52
2023-02-23T21:05:26.308Z,75.13
2023-02-23T21:08:00.101Z,75.26
2023-02-23T21:10:31.504Z,74.89
2023-02-23T21:13:00.811Z,75.17
2023-02-23T21:15:30.183Z,75.12
2023-02-23T21:17:59.786Z,75.13
2023-02-23T21:20:28.786Z,75.23
2023-02-23T21:22:58.726Z,75.36
2023-02-23T21:25:28.626Z,75.15
2023-02-23T21:27:57.124Z,75.65
2023-02-23T21:30:28.771Z,75.69
2023-02-23T21:33:00.367Z,75.76
2023-02-23T21:35:28.977Z,75.79
2023-02-23T21:37:59.423Z,76.18
2023-02-23T21:40:27.979Z,76.14
2023-02-23T21:42:56.374Z,76.08
2023-02-23T21:45:24.794Z,76.63
2023-02-23T21:47:53.272Z,77.01
2023-02-23T21:50:21.718Z,77.00
2023-02-23T21:52:53.271Z,76.94
2023-02-23T21:55:23.261Z,76.75
2023-02-23T21:57:53.023Z,76.57
2023-02-23T22:00:23.100Z,76.00
2023-02-23T22:02:52.064Z,76.19
2023-02-23T22:05:21.077Z,76.59
2023-02-23T22:07:51.522Z,76.74
2023-02-23T22:10:23.168Z,76.65
2023-02-23T22:12:57.070Z,76.51
2023-02-23T22:15:28.384Z,76.50
2023-02-23T22:17:57.207Z,76.14
2023-02-23T22:20:26.355Z,76.13
2023-02-23T22:22:54.933Z,76.06
2023-02-23T22:25:26.232Z,75.99
2023-02-23T22:27:54.715Z,76.28
2023-02-23T22:30:23.536Z,76.39
2023-02-23T22:32:52.297Z,76.59
2023-02-23T22:35:20.877Z,76.52
2023-02-23T22:37:49.323Z,76.86
2023-02-23T22:40:17.979Z,76.85
2023-02-23T22:42:49.624Z,77.38
2023-02-23T22:45:19.004Z,77.70
2023-02-23T22:47:47.500Z,78.02
2023-02-23T22:50:18.274Z,78.32
2023-02-23T22:52:47.472Z,78.43
2023-02-23T22:55:15.998Z,78.46
2023-02-23T22:57:44.386Z,78.77
2023-02-23T23:00:17.699Z,78.44
2023-02-23T23:02:46.197Z,78.37
2023-02-23T23:05:15.741Z,78.05
2023-02-23T23:07:46.736Z,78.13
2023-02-23T23:10:16.198Z,77.96
2023-02-23T23:12:45.103Z,77.31
2023-02-23T23:15:17.496Z,76.99
2023-02-23T23:17:49.334Z,76.71
2023-02-23T23:20:25.858Z,76.70
2023-02-23T23:22:54.972Z,76.58
2023-02-23T23:25:23.978Z,76.60
2023-02-23T23:27:55.691Z,76.72
2023-02-23T23:30:29.343Z,77.07
2023-02-23T23:32:57.965Z,77.12
2023-02-23T23:35:26.910Z,77.20
2023-02-23T23:37:55.401Z,77.12
2023-02-23T23:40:24.909Z,77.30
2023-02-23T23:42:55.524Z,77.66
2023-02-23T23:45:25.865Z,77.61
2023-02-23T23:47:54.403Z,77.57
2023-02-23T23:50:27.110Z,77.60
2023-02-23T23:52:57.187Z,77.69
2023-02-23T23:55:31.553Z,77.85
2023-02-23T23:58:00.812Z,78.04
